Iver Bright — ZDKU4 — position and weather

sailwx.info

Track history (hours):
 
Tides and Currents Weather Stations Pressure Air Temp Water Temp Dewpoint Dewpoint Depression Visibility Wind Speed Wind Dir Waves Ship Positions

Iver Bright

Last reported at 2018-Apr-25 00:46 UTC. Time now 2018-Apr-25 01:04 UTC.
Position N 37°34' E 009°59'.

Length 111 m; draft 5.2 m.

Type: Tanker. MMSI: 236111811.

Date/timePositionNaut miles runAvg speedWind from/ knotsBaromVisibWave heightAir tempDewpointWater temp
2018-Apr-25 00:46N 37°34' E 009°59'411.9
2018-Apr-25 00:26N 37°33' E 009°53'511.9
2018-Apr-25 00:00N 37°32' E 009°47'611.9
2018-Apr-24 23:30N 37°30' E 009°40'611.8
2018-Apr-24 23:00N 37°29' E 009°33'611.4
2018-Apr-24 22:29N 37°27' E 009°26'17010.6
2018-Apr-24 06:24N 37°15' E 005°52'411.1
2018-Apr-24 06:00N 37°15' E 005°47'1611.3
2018-Apr-24 04:37N 37°13' E 005°27'110.9
2018-Apr-24 04:30N 37°13' E 005°26'1611.1
2018-Apr-24 03:01N 37°13' E 005°05'011.1
2018-Apr-24 02:59N 37°13' E 005°05'2411.0
2018-Apr-24 00:48N 37°11' E 004°35'411.4
2018-Apr-24 00:29N 37°11' E 004°30'611.3
2018-Apr-24 00:00N 37°10' E 004°23'611.1
2018-Apr-23 23:29N 37°10' E 004°16'511.0
2018-Apr-23 23:00N 37°09' E 004°10'611.0
2018-Apr-23 22:30N 37°09' E 004°03'511.1
2018-Apr-23 22:00N 37°09' E 003°56'2410.2
2018-Apr-23 19:41N 37°02' E 003°27'10 9.2
2018-Apr-23 18:35N 36°59' E 003°15'410.0
2018-Apr-23 18:11N 36°56' E 003°12'210.2
2018-Apr-23 17:58N 36°54' E 003°11'510.9
2018-Apr-23 17:28N 36°49' E 003°07'4 0.2
2018-Apr-22 21:35N 36°46' E 003°04'0 1.9
2018-Apr-22 21:28N 36°46' E 003°04'2 3.0
2018-Apr-22 20:52N 36°47' E 003°06'  
2018-Apr-20 04:47N 36°41' E 013°43'412.9
2018-Apr-20 04:29N 36°40' E 013°48'510.1
2018-Apr-20 04:00N 36°38' E 013°54'610.8
2018-Apr-20 03:29N 36°37' E 014°00'510.2
2018-Apr-20 03:00N 36°35' E 014°06'510.6
2018-Apr-20 02:30N 36°33' E 014°12'611.2
2018-Apr-20 02:00N 36°32' E 014°19'710.5
2018-Apr-20 01:18N 36°29' E 014°28'515.2
2018-Apr-20 00:57N 36°28' E 014°34'3 7.3
2018-Apr-20 00:30N 36°27' E 014°38'5 9.9
2018-Apr-19 23:58N 36°28' E 014°45'711.4
2018-Apr-19 23:19N 36°30' E 014°53'3 8.7
2018-Apr-19 23:00N 36°30' E 014°57'810.8
2018-Apr-19 22:17N 36°32' E 015°06'19 0.6
2018-Apr-18 10:58N 36°28' E 014°43'510.3
2018-Apr-18 10:29N 36°27' E 014°37'510.3
2018-Apr-18 10:00N 36°27' E 014°30'510.4
2018-Apr-18 09:30N 36°29' E 014°24'510.1
2018-Apr-18 08:59N 36°30' E 014°18'510.5
2018-Apr-18 08:30N 36°32' E 014°12'510.7
2018-Apr-18 08:00N 36°33' E 014°06'510.5
2018-Apr-18 07:30N 36°35' E 013°59'510.5
2018-Apr-18 07:00N 36°36' E 013°53'510.3
2018-Apr-18 06:30N 36°38' E 013°47'510.3
2018-Apr-18 06:00N 36°39' E 013°41'510.5
2018-Apr-18 05:30N 36°40' E 013°34'510.1
2018-Apr-18 05:00N 36°41' E 013°28'5 9.9
2018-Apr-18 04:30N 36°42' E 013°22'510.0
2018-Apr-18 03:59N 36°44' E 013°16'510.0
2018-Apr-18 03:29N 36°45' E 013°10'  
Track history (hours):
 
Tides and Currents Weather Stations Pressure Air Temp Water Temp Dewpoint Dewpoint Depression Visibility Wind Speed Wind Dir Waves Ship Positions

Iver Bright

Last reported at 2018-Apr-25 00:46 UTC. Time now 2018-Apr-25 01:04 UTC.
Position N 37°34' E 009°59'.

Length 111 m; draft 5.2 m.

Type: Tanker. MMSI: 236111811.

Date/timePositionNaut miles runAvg speedWind from/ knotsBaromVisibWave heightAir tempDewpointWater temp
2018-Apr-25 00:46N 37°34' E 009°59'411.9
2018-Apr-25 00:26N 37°33' E 009°53'511.9
2018-Apr-25 00:00N 37°32' E 009°47'611.9
2018-Apr-24 23:30N 37°30' E 009°40'611.8
2018-Apr-24 23:00N 37°29' E 009°33'611.4
2018-Apr-24 22:29N 37°27' E 009°26'17010.6
2018-Apr-24 06:24N 37°15' E 005°52'411.1
2018-Apr-24 06:00N 37°15' E 005°47'1611.3
2018-Apr-24 04:37N 37°13' E 005°27'110.9
2018-Apr-24 04:30N 37°13' E 005°26'1611.1
2018-Apr-24 03:01N 37°13' E 005°05'011.1
2018-Apr-24 02:59N 37°13' E 005°05'2411.0
2018-Apr-24 00:48N 37°11' E 004°35'411.4
2018-Apr-24 00:29N 37°11' E 004°30'611.3
2018-Apr-24 00:00N 37°10' E 004°23'611.1
2018-Apr-23 23:29N 37°10' E 004°16'511.0
2018-Apr-23 23:00N 37°09' E 004°10'611.0
2018-Apr-23 22:30N 37°09' E 004°03'511.1
2018-Apr-23 22:00N 37°09' E 003°56'2410.2
2018-Apr-23 19:41N 37°02' E 003°27'10 9.2
2018-Apr-23 18:35N 36°59' E 003°15'410.0
2018-Apr-23 18:11N 36°56' E 003°12'210.2
2018-Apr-23 17:58N 36°54' E 003°11'510.9
2018-Apr-23 17:28N 36°49' E 003°07'4 0.2
2018-Apr-22 21:35N 36°46' E 003°04'0 1.9
2018-Apr-22 21:28N 36°46' E 003°04'2 3.0
2018-Apr-22 20:52N 36°47' E 003°06'  
2018-Apr-20 04:47N 36°41' E 013°43'412.9
2018-Apr-20 04:29N 36°40' E 013°48'510.1
2018-Apr-20 04:00N 36°38' E 013°54'610.8
2018-Apr-20 03:29N 36°37' E 014°00'510.2
2018-Apr-20 03:00N 36°35' E 014°06'510.6
2018-Apr-20 02:30N 36°33' E 014°12'611.2
2018-Apr-20 02:00N 36°32' E 014°19'710.5
2018-Apr-20 01:18N 36°29' E 014°28'515.2
2018-Apr-20 00:57N 36°28' E 014°34'3 7.3
2018-Apr-20 00:30N 36°27' E 014°38'5 9.9
2018-Apr-19 23:58N 36°28' E 014°45'711.4
2018-Apr-19 23:19N 36°30' E 014°53'3 8.7
2018-Apr-19 23:00N 36°30' E 014°57'810.8
2018-Apr-19 22:17N 36°32' E 015°06'19 0.6
2018-Apr-18 10:58N 36°28' E 014°43'510.3
2018-Apr-18 10:29N 36°27' E 014°37'510.3
2018-Apr-18 10:00N 36°27' E 014°30'510.4
2018-Apr-18 09:30N 36°29' E 014°24'510.1
2018-Apr-18 08:59N 36°30' E 014°18'510.5
2018-Apr-18 08:30N 36°32' E 014°12'510.7
2018-Apr-18 08:00N 36°33' E 014°06'510.5
2018-Apr-18 07:30N 36°35' E 013°59'510.5
2018-Apr-18 07:00N 36°36' E 013°53'510.3
2018-Apr-18 06:30N 36°38' E 013°47'510.3
2018-Apr-18 06:00N 36°39' E 013°41'510.5
2018-Apr-18 05:30N 36°40' E 013°34'510.1
2018-Apr-18 05:00N 36°41' E 013°28'5 9.9
2018-Apr-18 04:30N 36°42' E 013°22'510.0
2018-Apr-18 03:59N 36°44' E 013°16'510.0
2018-Apr-18 03:29N 36°45' E 013°10'  

Dump ship's entire track history